Terminal Aerodrome Forecast
Issued by NWS

Home | Current Version | Previous Version | Text Only | Print | Product List | Glossary On
Versions: 1 2 3 4 5 6 7 8 9 10 11 12 13 14 15 16 17 18 19 20 21 22 23 24
701
FTUS43 KLSX 102336
TAFUIN
TAF
KUIN 102336Z 1100/1124 10004KT P6SM OVC050
      TEMPO 1100/1103 5SM -SN BKN015
     FM111400 05005KT P6SM SCT200=

USA.gov is the U.S. government's official web portal to all federal, state and local government web resources and services.